sensor_id;sensor_type;location;lat;lon;timestamp;P1;durP1;ratioP1;P2;durP2;ratioP2
3267;SDS011;1646;52.450;13.326;2023-10-08T00:02:21;5.33;;;1.50;;
3267;SDS011;1646;52.450;13.326;2023-10-08T00:07:22;3.60;;;1.57;;
3267;SDS011;1646;52.450;13.326;2023-10-08T00:12:21;1.70;;;1.10;;
3267;SDS011;1646;52.450;13.326;2023-10-08T00:17:21;4.23;;;1.53;;
3267;SDS011;1646;52.450;13.326;2023-10-08T00:22:22;4.93;;;1.40;;
3267;SDS011;1646;52.450;13.326;2023-10-08T00:27:21;1.97;;;1.07;;
3267;SDS011;1646;52.450;13.326;2023-10-08T00:32:22;2.80;;;1.23;;
3267;SDS011;1646;52.450;13.326;2023-10-08T00:37:21;1.30;;;1.10;;
3267;SDS011;1646;52.450;13.326;2023-10-08T00:42:23;5.23;;;1.00;;
3267;SDS011;1646;52.450;13.326;2023-10-08T00:47:23;1.40;;;1.20;;
3267;SDS011;1646;52.450;13.326;2023-10-08T00:52:24;4.80;;;1.87;;
3267;SDS011;1646;52.450;13.326;2023-10-08T00:57:35;4.77;;;1.60;;
3267;SDS011;1646;52.450;13.326;2023-10-08T01:02:40;2.93;;;1.37;;
3267;SDS011;1646;52.450;13.326;2023-10-08T01:07:46;4.57;;;1.60;;
3267;SDS011;1646;52.450;13.326;2023-10-08T01:12:48;2.73;;;2.03;;
3267;SDS011;1646;52.450;13.326;2023-10-08T01:18:01;2.73;;;1.67;;
3267;SDS011;1646;52.450;13.326;2023-10-08T01:23:03;2.50;;;1.50;;
3267;SDS011;1646;52.450;13.326;2023-10-08T01:28:06;6.17;;;1.70;;
3267;SDS011;1646;52.450;13.326;2023-10-08T01:33:11;2.90;;;1.77;;
3267;SDS011;1646;52.450;13.326;2023-10-08T01:38:12;2.83;;;1.30;;
3267;SDS011;1646;52.450;13.326;2023-10-08T01:43:10;4.00;;;1.63;;
3267;SDS011;1646;52.450;13.326;2023-10-08T01:48:10;5.03;;;1.53;;
3267;SDS011;1646;52.450;13.326;2023-10-08T01:53:09;6.90;;;1.97;;
3267;SDS011;1646;52.450;13.326;2023-10-08T01:58:09;3.67;;;1.87;;
3267;SDS011;1646;52.450;13.326;2023-10-08T02:03:08;3.50;;;1.67;;
3267;SDS011;1646;52.450;13.326;2023-10-08T02:08:06;3.23;;;1.63;;
3267;SDS011;1646;52.450;13.326;2023-10-08T02:13:05;5.93;;;2.53;;
3267;SDS011;1646;52.450;13.326;2023-10-08T02:18:06;4.60;;;2.73;;
3267;SDS011;1646;52.450;13.326;2023-10-08T02:23:05;7.80;;;2.53;;
3267;SDS011;1646;52.450;13.326;2023-10-08T02:28:04;9.93;;;3.37;;
3267;SDS011;1646;52.450;13.326;2023-10-08T02:33:06;5.23;;;3.37;;
3267;SDS011;1646;52.450;13.326;2023-10-08T02:38:11;8.80;;;2.70;;
3267;SDS011;1646;52.450;13.326;2023-10-08T02:43:13;5.90;;;3.20;;
3267;SDS011;1646;52.450;13.326;2023-10-08T02:48:13;9.00;;;3.40;;
3267;SDS011;1646;52.450;13.326;2023-10-08T02:53:13;6.03;;;2.40;;
3267;SDS011;1646;52.450;13.326;2023-10-08T02:58:15;9.00;;;3.20;;
3267;SDS011;1646;52.450;13.326;2023-10-08T03:03:18;9.33;;;3.30;;
3267;SDS011;1646;52.450;13.326;2023-10-08T03:08:17;7.83;;;3.30;;
3267;SDS011;1646;52.450;13.326;2023-10-08T03:13:18;14.20;;;3.40;;
3267;SDS011;1646;52.450;13.326;2023-10-08T03:18:18;13.73;;;3.10;;
3267;SDS011;1646;52.450;13.326;2023-10-08T03:23:18;5.90;;;2.40;;
3267;SDS011;1646;52.450;13.326;2023-10-08T03:28:30;4.47;;;3.07;;
3267;SDS011;1646;52.450;13.326;2023-10-08T03:33:33;6.00;;;2.37;;
3267;SDS011;1646;52.450;13.326;2023-10-08T03:38:35;9.87;;;3.40;;
3267;SDS011;1646;52.450;13.326;2023-10-08T03:43:47;5.93;;;3.30;;
3267;SDS011;1646;52.450;13.326;2023-10-08T03:48:54;9.80;;;3.00;;
3267;SDS011;1646;52.450;13.326;2023-10-08T03:53:54;6.00;;;3.30;;
3267;SDS011;1646;52.450;13.326;2023-10-08T03:58:55;14.30;;;3.67;;
3267;SDS011;1646;52.450;13.326;2023-10-08T04:03:58;5.30;;;3.27;;
3267;SDS011;1646;52.450;13.326;2023-10-08T04:08:57;6.73;;;3.40;;
3267;SDS011;1646;52.450;13.326;2023-10-08T04:14:08;6.80;;;3.70;;
3267;SDS011;1646;52.450;13.326;2023-10-08T04:19:08;15.20;;;3.67;;
3267;SDS011;1646;52.450;13.326;2023-10-08T04:24:07;9.27;;;3.97;;
3267;SDS011;1646;52.450;13.326;2023-10-08T04:29:06;9.23;;;3.60;;
3267;SDS011;1646;52.450;13.326;2023-10-08T04:34:06;10.10;;;3.40;;
3267;SDS011;1646;52.450;13.326;2023-10-08T04:39:12;12.27;;;4.70;;
3267;SDS011;1646;52.450;13.326;2023-10-08T04:44:17;6.97;;;3.60;;
3267;SDS011;1646;52.450;13.326;2023-10-08T04:49:19;12.37;;;3.77;;
3267;SDS011;1646;52.450;13.326;2023-10-08T04:54:24;8.80;;;3.67;;
3267;SDS011;1646;52.450;13.326;2023-10-08T04:59:27;8.23;;;3.40;;
3267;SDS011;1646;52.450;13.326;2023-10-08T05:04:32;9.40;;;3.03;;
3267;SDS011;1646;52.450;13.326;2023-10-08T05:09:43;10.90;;;4.00;;
3267;SDS011;1646;52.450;13.326;2023-10-08T05:14:48;8.40;;;3.40;;
3267;SDS011;1646;52.450;13.326;2023-10-08T05:20:14;8.63;;;3.07;;
3267;SDS011;1646;52.450;13.326;2023-10-08T05:25:26;10.93;;;3.30;;
3267;SDS011;1646;52.450;13.326;2023-10-08T05:30:37;6.20;;;2.97;;
3267;SDS011;1646;52.450;13.326;2023-10-08T05:35:40;12.10;;;3.17;;
3267;SDS011;1646;52.450;13.326;2023-10-08T05:40:51;9.40;;;3.53;;
3267;SDS011;1646;52.450;13.326;2023-10-08T05:46:14;12.03;;;4.10;;
3267;SDS011;1646;52.450;13.326;2023-10-08T05:51:32;8.57;;;3.70;;
3267;SDS011;1646;52.450;13.326;2023-10-08T05:57:02;6.83;;;3.37;;
3267;SDS011;1646;52.450;13.326;2023-10-08T06:02:11;7.20;;;3.20;;
3267;SDS011;1646;52.450;13.326;2023-10-08T06:07:26;8.03;;;4.33;;
3267;SDS011;1646;52.450;13.326;2023-10-08T06:12:44;8.73;;;3.30;;
3267;SDS011;1646;52.450;13.326;2023-10-08T06:17:46;8.87;;;4.07;;
3267;SDS011;1646;52.450;13.326;2023-10-08T06:23:03;6.70;;;3.23;;
3267;SDS011;1646;52.450;13.326;2023-10-08T06:28:04;7.70;;;4.17;;
3267;SDS011;1646;52.450;13.326;2023-10-08T06:33:06;9.60;;;3.90;;
3267;SDS011;1646;52.450;13.326;2023-10-08T06:38:06;8.67;;;3.43;;
3267;SDS011;1646;52.450;13.326;2023-10-08T06:43:06;6.70;;;2.63;;
3267;SDS011;1646;52.450;13.326;2023-10-08T06:48:19;5.77;;;3.17;;
3267;SDS011;1646;52.450;13.326;2023-10-08T06:53:19;8.70;;;2.90;;
3267;SDS011;1646;52.450;13.326;2023-10-08T06:58:18;7.47;;;2.50;;
3267;SDS011;1646;52.450;13.326;2023-10-08T07:03:16;5.43;;;2.63;;
3267;SDS011;1646;52.450;13.326;2023-10-08T07:08:15;6.77;;;2.80;;
3267;SDS011;1646;52.450;13.326;2023-10-08T07:13:18;6.10;;;2.50;;
3267;SDS011;1646;52.450;13.326;2023-10-08T07:18:18;6.00;;;2.30;;
3267;SDS011;1646;52.450;13.326;2023-10-08T07:23:22;2.50;;;1.87;;
3267;SDS011;1646;52.450;13.326;2023-10-08T07:28:25;4.43;;;1.80;;
3267;SDS011;1646;52.450;13.326;2023-10-08T07:33:23;9.90;;;1.53;;
3267;SDS011;1646;52.450;13.326;2023-10-08T07:38:33;7.90;;;2.43;;
3267;SDS011;1646;52.450;13.326;2023-10-08T07:43:33;5.03;;;1.80;;
3267;SDS011;1646;52.450;13.326;2023-10-08T07:48:31;3.13;;;1.33;;
3267;SDS011;1646;52.450;13.326;2023-10-08T07:53:30;4.53;;;1.47;;
3267;SDS011;1646;52.450;13.326;2023-10-08T07:58:36;4.77;;;1.57;;
3267;SDS011;1646;52.450;13.326;2023-10-08T08:03:35;2.00;;;1.20;;
3267;SDS011;1646;52.450;13.326;2023-10-08T08:08:34;4.23;;;1.70;;
3267;SDS011;1646;52.450;13.326;2023-10-08T08:13:34;1.93;;;1.30;;
3267;SDS011;1646;52.450;13.326;2023-10-08T08:18:33;2.93;;;1.70;;
3267;SDS011;1646;52.450;13.326;2023-10-08T08:23:32;5.87;;;1.90;;
3267;SDS011;1646;52.450;13.326;2023-10-08T08:28:31;1.60;;;1.50;;
3267;SDS011;1646;52.450;13.326;2023-10-08T08:33:29;5.07;;;1.40;;
3267;SDS011;1646;52.450;13.326;2023-10-08T08:38:50;2.80;;;1.23;;
3267;SDS011;1646;52.450;13.326;2023-10-08T08:43:49;1.80;;;1.23;;
3267;SDS011;1646;52.450;13.326;2023-10-08T08:48:54;2.83;;;1.30;;
3267;SDS011;1646;52.450;13.326;2023-10-08T08:53:57;5.23;;;1.43;;
3267;SDS011;1646;52.450;13.326;2023-10-08T08:58:57;1.97;;;1.17;;
3267;SDS011;1646;52.450;13.326;2023-10-08T09:04:00;4.07;;;1.30;;
3267;SDS011;1646;52.450;13.326;2023-10-08T09:09:07;1.70;;;0.97;;
3267;SDS011;1646;52.450;13.326;2023-10-08T09:14:19;5.27;;;1.47;;
3267;SDS011;1646;52.450;13.326;2023-10-08T09:19:19;1.23;;;1.00;;
3267;SDS011;1646;52.450;13.326;2023-10-08T09:24:21;3.23;;;1.03;;
3267;SDS011;1646;52.450;13.326;2023-10-08T09:29:22;5.10;;;1.30;;
3267;SDS011;1646;52.450;13.326;2023-10-08T09:34:20;2.10;;;1.00;;
3267;SDS011;1646;52.450;13.326;2023-10-08T09:39:19;2.53;;;1.20;;
3267;SDS011;1646;52.450;13.326;2023-10-08T09:44:21;2.10;;;1.10;;
3267;SDS011;1646;52.450;13.326;2023-10-08T09:49:24;2.90;;;0.90;;
3267;SDS011;1646;52.450;13.326;2023-10-08T09:54:31;1.30;;;0.93;;
3267;SDS011;1646;52.450;13.326;2023-10-08T09:59:39;1.00;;;0.90;;
3267;SDS011;1646;52.450;13.326;2023-10-08T10:04:41;1.67;;;1.03;;
3267;SDS011;1646;52.450;13.326;2023-10-08T10:09:42;1.97;;;0.80;;
3267;SDS011;1646;52.450;13.326;2023-10-08T10:14:45;1.47;;;1.10;;
3267;SDS011;1646;52.450;13.326;2023-10-08T10:19:45;2.20;;;0.70;;
3267;SDS011;1646;52.450;13.326;2023-10-08T10:24:48;1.63;;;0.90;;
3267;SDS011;1646;52.450;13.326;2023-10-08T10:29:47;1.10;;;0.70;;
3267;SDS011;1646;52.450;13.326;2023-10-08T10:34:46;1.40;;;0.90;;
3267;SDS011;1646;52.450;13.326;2023-10-08T10:39:52;1.87;;;1.00;;
3267;SDS011;1646;52.450;13.326;2023-10-08T10:44:54;3.13;;;1.17;;
3267;SDS011;1646;52.450;13.326;2023-10-08T10:49:55;1.60;;;1.20;;
3267;SDS011;1646;52.450;13.326;2023-10-08T10:55:08;2.40;;;0.93;;
3267;SDS011;1646;52.450;13.326;2023-10-08T11:00:21;2.03;;;1.10;;
3267;SDS011;1646;52.450;13.326;2023-10-08T11:05:37;3.00;;;1.77;;
3267;SDS011;1646;52.450;13.326;2023-10-08T11:10:37;6.23;;;1.10;;
3267;SDS011;1646;52.450;13.326;2023-10-08T11:15:37;2.53;;;0.93;;
3267;SDS011;1646;52.450;13.326;2023-10-08T11:20:37;1.60;;;1.00;;
3267;SDS011;1646;52.450;13.326;2023-10-08T11:25:36;1.37;;;0.87;;
3267;SDS011;1646;52.450;13.326;2023-10-08T11:30:41;1.67;;;0.97;;
3267;SDS011;1646;52.450;13.326;2023-10-08T11:35:54;16.23;;;1.80;;
3267;SDS011;1646;52.450;13.326;2023-10-08T11:40:55;2.67;;;1.27;;
3267;SDS011;1646;52.450;13.326;2023-10-08T11:45:55;7.83;;;1.30;;
3267;SDS011;1646;52.450;13.326;2023-10-08T11:50:54;2.03;;;0.90;;
3267;SDS011;1646;52.450;13.326;2023-10-08T11:55:54;1.97;;;1.20;;
3267;SDS011;1646;52.450;13.326;2023-10-08T12:00:56;2.63;;;1.00;;
3267;SDS011;1646;52.450;13.326;2023-10-08T12:06:00;2.27;;;1.10;;
3267;SDS011;1646;52.450;13.326;2023-10-08T12:11:02;1.60;;;1.07;;
3267;SDS011;1646;52.450;13.326;2023-10-08T12:16:08;1.83;;;1.40;;
3267;SDS011;1646;52.450;13.326;2023-10-08T12:21:09;1.20;;;0.90;;
3267;SDS011;1646;52.450;13.326;2023-10-08T12:26:08;1.53;;;0.97;;
3267;SDS011;1646;52.450;13.326;2023-10-08T12:31:13;5.13;;;1.10;;
3267;SDS011;1646;52.450;13.326;2023-10-08T12:36:13;1.00;;;0.90;;
3267;SDS011;1646;52.450;13.326;2023-10-08T12:41:13;0.80;;;0.80;;
3267;SDS011;1646;52.450;13.326;2023-10-08T12:46:14;1.93;;;0.90;;
3267;SDS011;1646;52.450;13.326;2023-10-08T12:51:18;2.30;;;1.10;;
3267;SDS011;1646;52.450;13.326;2023-10-08T12:56:21;2.23;;;0.80;;
3267;SDS011;1646;52.450;13.326;2023-10-08T13:01:29;1.70;;;1.13;;
3267;SDS011;1646;52.450;13.326;2023-10-08T13:06:28;2.50;;;0.93;;
3267;SDS011;1646;52.450;13.326;2023-10-08T13:11:27;1.60;;;1.00;;
3267;SDS011;1646;52.450;13.326;2023-10-08T13:16:30;2.33;;;1.00;;
3267;SDS011;1646;52.450;13.326;2023-10-08T13:21:28;3.00;;;1.00;;
3267;SDS011;1646;52.450;13.326;2023-10-08T13:26:29;2.57;;;1.10;;
3267;SDS011;1646;52.450;13.326;2023-10-08T13:31:30;1.33;;;0.90;;
3267;SDS011;1646;52.450;13.326;2023-10-08T13:36:33;1.53;;;0.70;;
3267;SDS011;1646;52.450;13.326;2023-10-08T13:41:35;3.17;;;0.90;;
3267;SDS011;1646;52.450;13.326;2023-10-08T13:46:36;1.63;;;1.00;;
3267;SDS011;1646;52.450;13.326;2023-10-08T13:51:39;20.83;;;1.83;;
3267;SDS011;1646;52.450;13.326;2023-10-08T13:56:38;1.60;;;1.00;;
3267;SDS011;1646;52.450;13.326;2023-10-08T14:01:41;1.73;;;1.03;;
3267;SDS011;1646;52.450;13.326;2023-10-08T14:06:43;1.43;;;0.73;;
3267;SDS011;1646;52.450;13.326;2023-10-08T14:11:44;1.83;;;0.70;;
3267;SDS011;1646;52.450;13.326;2023-10-08T14:16:44;3.30;;;1.10;;
3267;SDS011;1646;52.450;13.326;2023-10-08T14:21:48;1.83;;;0.80;;
3267;SDS011;1646;52.450;13.326;2023-10-08T14:26:51;1.73;;;1.20;;
3267;SDS011;1646;52.450;13.326;2023-10-08T14:31:52;1.47;;;0.93;;
3267;SDS011;1646;52.450;13.326;2023-10-08T14:36:53;2.00;;;0.90;;
3267;SDS011;1646;52.450;13.326;2023-10-08T14:42:08;1.67;;;0.80;;
3267;SDS011;1646;52.450;13.326;2023-10-08T14:47:25;1.43;;;0.83;;
3267;SDS011;1646;52.450;13.326;2023-10-08T14:52:24;3.07;;;1.03;;
3267;SDS011;1646;52.450;13.326;2023-10-08T14:57:22;1.57;;;0.87;;
3267;SDS011;1646;52.450;13.326;2023-10-08T15:02:23;2.90;;;1.57;;
3267;SDS011;1646;52.450;13.326;2023-10-08T15:07:27;2.37;;;1.17;;
3267;SDS011;1646;52.450;13.326;2023-10-08T15:12:25;2.97;;;0.90;;
3267;SDS011;1646;52.450;13.326;2023-10-08T15:17:24;1.30;;;0.97;;
3267;SDS011;1646;52.450;13.326;2023-10-08T15:22:23;2.10;;;0.90;;
3267;SDS011;1646;52.450;13.326;2023-10-08T15:27:23;1.67;;;0.80;;
3267;SDS011;1646;52.450;13.326;2023-10-08T15:32:22;1.23;;;1.00;;
3267;SDS011;1646;52.450;13.326;2023-10-08T15:37:22;2.20;;;0.90;;
3267;SDS011;1646;52.450;13.326;2023-10-08T15:42:20;4.33;;;1.20;;
3267;SDS011;1646;52.450;13.326;2023-10-08T15:47:20;1.40;;;0.90;;
3267;SDS011;1646;52.450;13.326;2023-10-08T15:52:19;1.77;;;1.03;;
3267;SDS011;1646;52.450;13.326;2023-10-08T15:57:19;1.87;;;1.17;;
3267;SDS011;1646;52.450;13.326;2023-10-08T16:02:17;3.03;;;0.90;;
3267;SDS011;1646;52.450;13.326;2023-10-08T16:07:17;2.53;;;1.30;;
3267;SDS011;1646;52.450;13.326;2023-10-08T16:12:16;1.57;;;1.40;;
3267;SDS011;1646;52.450;13.326;2023-10-08T16:17:15;1.83;;;1.17;;
3267;SDS011;1646;52.450;13.326;2023-10-08T16:22:17;3.40;;;0.90;;
3267;SDS011;1646;52.450;13.326;2023-10-08T16:27:15;2.03;;;1.00;;
3267;SDS011;1646;52.450;13.326;2023-10-08T16:32:16;1.83;;;1.07;;
3267;SDS011;1646;52.450;13.326;2023-10-08T16:37:14;1.83;;;1.10;;
3267;SDS011;1646;52.450;13.326;2023-10-08T16:42:19;1.63;;;1.17;;
3267;SDS011;1646;52.450;13.326;2023-10-08T16:47:18;2.43;;;1.37;;
3267;SDS011;1646;52.450;13.326;2023-10-08T16:52:17;2.00;;;1.30;;
3267;SDS011;1646;52.450;13.326;2023-10-08T16:57:16;3.13;;;1.53;;
3267;SDS011;1646;52.450;13.326;2023-10-08T17:02:16;2.90;;;1.50;;
3267;SDS011;1646;52.450;13.326;2023-10-08T17:07:15;2.00;;;1.23;;
3267;SDS011;1646;52.450;13.326;2023-10-08T17:12:13;3.63;;;1.40;;
3267;SDS011;1646;52.450;13.326;2023-10-08T17:17:17;1.90;;;1.40;;
3267;SDS011;1646;52.450;13.326;2023-10-08T17:22:15;2.23;;;1.60;;
3267;SDS011;1646;52.450;13.326;2023-10-08T17:27:14;3.70;;;1.70;;
3267;SDS011;1646;52.450;13.326;2023-10-08T17:32:12;8.63;;;1.53;;
3267;SDS011;1646;52.450;13.326;2023-10-08T17:37:12;3.33;;;1.53;;
3267;SDS011;1646;52.450;13.326;2023-10-08T17:42:10;4.17;;;2.03;;
3267;SDS011;1646;52.450;13.326;2023-10-08T17:47:09;5.97;;;2.10;;
3267;SDS011;1646;52.450;13.326;2023-10-08T17:52:09;5.63;;;2.20;;
3267;SDS011;1646;52.450;13.326;2023-10-08T17:57:10;4.67;;;2.03;;
3267;SDS011;1646;52.450;13.326;2023-10-08T18:02:11;3.10;;;2.00;;
3267;SDS011;1646;52.450;13.326;2023-10-08T18:07:10;3.40;;;2.07;;
3267;SDS011;1646;52.450;13.326;2023-10-08T18:12:08;4.27;;;1.90;;
3267;SDS011;1646;52.450;13.326;2023-10-08T18:17:08;4.67;;;2.50;;
3267;SDS011;1646;52.450;13.326;2023-10-08T18:22:07;3.27;;;2.17;;
3267;SDS011;1646;52.450;13.326;2023-10-08T18:27:06;6.63;;;2.50;;
3267;SDS011;1646;52.450;13.326;2023-10-08T18:32:07;6.37;;;2.27;;
3267;SDS011;1646;52.450;13.326;2023-10-08T18:37:06;6.20;;;2.30;;
3267;SDS011;1646;52.450;13.326;2023-10-08T18:42:06;3.97;;;2.70;;
3267;SDS011;1646;52.450;13.326;2023-10-08T18:47:04;7.83;;;3.23;;
3267;SDS011;1646;52.450;13.326;2023-10-08T18:52:04;4.00;;;3.07;;
3267;SDS011;1646;52.450;13.326;2023-10-08T18:57:03;4.27;;;3.17;;
3267;SDS011;1646;52.450;13.326;2023-10-08T19:02:02;3.87;;;3.13;;
3267;SDS011;1646;52.450;13.326;2023-10-08T19:07:02;6.63;;;3.93;;
3267;SDS011;1646;52.450;13.326;2023-10-08T19:12:02;8.03;;;3.70;;
3267;SDS011;1646;52.450;13.326;2023-10-08T19:17:03;5.53;;;3.43;;
3267;SDS011;1646;52.450;13.326;2023-10-08T19:22:01;8.03;;;4.20;;
3267;SDS011;1646;52.450;13.326;2023-10-08T19:27:02;6.07;;;3.53;;
3267;SDS011;1646;52.450;13.326;2023-10-08T19:32:02;8.57;;;4.50;;
3267;SDS011;1646;52.450;13.326;2023-10-08T19:37:01;7.70;;;4.17;;
3267;SDS011;1646;52.450;13.326;2023-10-08T19:42:02;9.10;;;4.90;;
3267;SDS011;1646;52.450;13.326;2023-10-08T19:47:01;8.60;;;4.53;;
3267;SDS011;1646;52.450;13.326;2023-10-08T19:52:00;5.57;;;4.33;;
3267;SDS011;1646;52.450;13.326;2023-10-08T19:57:00;7.13;;;4.60;;
3267;SDS011;1646;52.450;13.326;2023-10-08T20:02:00;9.60;;;5.20;;
3267;SDS011;1646;52.450;13.326;2023-10-08T20:06:58;8.73;;;4.50;;
3267;SDS011;1646;52.450;13.326;2023-10-08T20:11:57;7.27;;;4.20;;
3267;SDS011;1646;52.450;13.326;2023-10-08T20:16:57;5.60;;;3.87;;
3267;SDS011;1646;52.450;13.326;2023-10-08T20:21:56;7.40;;;4.70;;
3267;SDS011;1646;52.450;13.326;2023-10-08T20:26:54;6.10;;;3.67;;
3267;SDS011;1646;52.450;13.326;2023-10-08T20:31:53;7.70;;;3.90;;
3267;SDS011;1646;52.450;13.326;2023-10-08T20:36:58;6.10;;;3.67;;
3267;SDS011;1646;52.450;13.326;2023-10-08T20:41:56;5.47;;;3.60;;
3267;SDS011;1646;52.450;13.326;2023-10-08T20:46:54;7.43;;;4.00;;
3267;SDS011;1646;52.450;13.326;2023-10-08T20:51:53;5.47;;;3.43;;
3267;SDS011;1646;52.450;13.326;2023-10-08T20:56:53;4.20;;;3.20;;
3267;SDS011;1646;52.450;13.326;2023-10-08T21:01:51;8.77;;;3.50;;
3267;SDS011;1646;52.450;13.326;2023-10-08T21:06:51;6.00;;;3.10;;
3267;SDS011;1646;52.450;13.326;2023-10-08T21:11:50;3.63;;;2.93;;
3267;SDS011;1646;52.450;13.326;2023-10-08T21:16:50;5.17;;;3.00;;
3267;SDS011;1646;52.450;13.326;2023-10-08T21:21:51;3.93;;;2.33;;
3267;SDS011;1646;52.450;13.326;2023-10-08T21:26:50;5.80;;;2.53;;
3267;SDS011;1646;52.450;13.326;2023-10-08T21:31:51;4.97;;;2.50;;
3267;SDS011;1646;52.450;13.326;2023-10-08T21:36:49;6.10;;;2.90;;
3267;SDS011;1646;52.450;13.326;2023-10-08T21:41:50;3.10;;;2.23;;
3267;SDS011;1646;52.450;13.326;2023-10-08T21:46:51;6.60;;;2.70;;
3267;SDS011;1646;52.450;13.326;2023-10-08T21:51:50;2.50;;;2.17;;
3267;SDS011;1646;52.450;13.326;2023-10-08T21:56:49;4.20;;;2.50;;
3267;SDS011;1646;52.450;13.326;2023-10-08T22:01:47;5.27;;;2.27;;
3267;SDS011;1646;52.450;13.326;2023-10-08T22:06:48;3.93;;;2.10;;
3267;SDS011;1646;52.450;13.326;2023-10-08T22:11:46;6.70;;;2.43;;
3267;SDS011;1646;52.450;13.326;2023-10-08T22:16:46;3.20;;;2.17;;
3267;SDS011;1646;52.450;13.326;2023-10-08T22:21:44;4.60;;;2.13;;
3267;SDS011;1646;52.450;13.326;2023-10-08T22:26:44;4.67;;;2.90;;
3267;SDS011;1646;52.450;13.326;2023-10-08T22:31:43;6.97;;;2.93;;
3267;SDS011;1646;52.450;13.326;2023-10-08T22:36:43;5.20;;;2.20;;
3267;SDS011;1646;52.450;13.326;2023-10-08T22:41:59;4.37;;;2.77;;
3267;SDS011;1646;52.450;13.326;2023-10-08T22:46:59;5.50;;;2.40;;
3267;SDS011;1646;52.450;13.326;2023-10-08T22:52:07;4.20;;;2.40;;
3267;SDS011;1646;52.450;13.326;2023-10-08T22:57:07;4.10;;;2.30;;
3267;SDS011;1646;52.450;13.326;2023-10-08T23:02:06;3.30;;;2.10;;
3267;SDS011;1646;52.450;13.326;2023-10-08T23:07:07;2.77;;;2.50;;
3267;SDS011;1646;52.450;13.326;2023-10-08T23:12:08;5.47;;;2.37;;
3267;SDS011;1646;52.450;13.326;2023-10-08T23:17:06;6.30;;;2.80;;
3267;SDS011;1646;52.450;13.326;2023-10-08T23:22:08;8.90;;;2.40;;
3267;SDS011;1646;52.450;13.326;2023-10-08T23:27:08;6.67;;;3.17;;
3267;SDS011;1646;52.450;13.326;2023-10-08T23:32:07;5.00;;;2.53;;
3267;SDS011;1646;52.450;13.326;2023-10-08T23:37:05;3.87;;;2.37;;
3267;SDS011;1646;52.450;13.326;2023-10-08T23:42:20;4.90;;;2.50;;
3267;SDS011;1646;52.450;13.326;2023-10-08T23:47:28;5.53;;;2.30;;
3267;SDS011;1646;52.450;13.326;2023-10-08T23:52:27;2.40;;;2.20;;
3267;SDS011;1646;52.450;13.326;2023-10-08T23:57:31;5.17;;;2.17;;
